createdAt,value
2018-05-27T00:00:22.358Z,6.60
2018-05-27T00:01:22.457Z,5.90
2018-05-27T00:02:23.272Z,6.10
2018-05-27T00:03:23.262Z,5.80
2018-05-27T00:04:23.260Z,6.10
2018-05-27T00:05:23.762Z,6.20
2018-05-27T00:06:22.991Z,6.60
2018-05-27T00:07:23.761Z,5.90
2018-05-27T00:08:23.802Z,6.00
2018-05-27T00:09:24.261Z,5.60
2018-05-27T00:10:24.261Z,6.10
2018-05-27T00:11:24.262Z,6.10
2018-05-27T00:12:24.266Z,5.90
2018-05-27T00:13:24.762Z,6.50
2018-05-27T00:14:23.986Z,5.90
2018-05-27T00:15:24.762Z,5.60
2018-05-27T00:16:24.762Z,5.80
2018-05-27T00:17:46.262Z,5.80
2018-05-27T00:19:24.760Z,5.80
2018-05-27T00:20:24.764Z,6.00
2018-05-27T00:21:25.262Z,6.00
2018-05-27T00:22:25.262Z,6.00
2018-05-27T00:23:25.262Z,5.80
2018-05-27T00:24:25.282Z,5.90
2018-05-27T00:25:25.368Z,5.70
2018-05-27T00:26:25.766Z,6.00
2018-05-27T00:27:25.765Z,5.70
2018-05-27T00:28:25.755Z,5.80
2018-05-27T00:29:26.267Z,5.60
2018-05-27T00:30:26.269Z,5.80
2018-05-27T00:31:26.261Z,6.40
2018-05-27T00:32:29.264Z,5.70
2018-05-27T00:33:27.759Z,5.80
2018-05-27T00:34:26.759Z,5.70
2018-05-27T00:35:26.763Z,5.90
2018-05-27T00:36:26.761Z,5.40
2018-05-27T00:37:27.261Z,6.00
2018-05-27T00:38:27.262Z,5.80
2018-05-27T00:39:27.260Z,5.40
2018-05-27T00:40:27.265Z,5.40
2018-05-27T00:41:27.759Z,5.80
2018-05-27T00:42:27.762Z,5.60
2018-05-27T00:43:27.765Z,5.40
2018-05-27T00:44:28.760Z,5.50
2018-05-27T00:45:28.261Z,6.10
2018-05-27T00:46:28.310Z,5.80
2018-05-27T00:47:28.261Z,5.70
2018-05-27T00:48:28.261Z,5.90
2018-05-27T00:49:28.762Z,5.10
2018-05-27T00:50:29.261Z,5.50
2018-05-27T00:51:29.265Z,5.60
2018-05-27T00:52:29.263Z,5.80
2018-05-27T00:53:30.259Z,5.90
2018-05-27T00:54:29.799Z,5.40
2018-05-27T00:55:29.758Z,5.50
2018-05-27T00:56:29.761Z,5.60
2018-05-27T00:57:29.761Z,5.70
2018-05-27T00:58:30.266Z,5.50
2018-05-27T00:59:30.265Z,5.70
2018-05-27T01:00:30.263Z,5.90
2018-05-27T01:01:30.261Z,5.50
2018-05-27T01:02:29.860Z,5.70
2018-05-27T01:03:30.769Z,5.90
2018-05-27T01:04:30.761Z,6.70
2018-05-27T01:05:30.763Z,6.20
2018-05-27T01:06:31.261Z,5.50
2018-05-27T01:07:31.261Z,5.80
2018-05-27T01:08:31.259Z,6.00
2018-05-27T01:09:31.259Z,5.80
2018-05-27T01:10:31.761Z,5.60
2018-05-27T01:11:31.765Z,6.00
2018-05-27T01:12:31.762Z,5.30
2018-05-27T01:13:53.760Z,5.30
2018-05-27T01:14:53.261Z,5.90
2018-05-27T01:15:32.291Z,5.80
2018-05-27T01:16:32.264Z,6.00
2018-05-27T01:17:32.260Z,5.70
2018-05-27T01:18:33.760Z,5.50
2018-05-27T01:19:32.765Z,5.80
2018-05-27T01:20:32.761Z,5.20
2018-05-27T01:21:32.761Z,6.10
2018-05-27T01:22:39.262Z,5.80
2018-05-27T01:23:33.274Z,6.00
2018-05-27T01:24:33.260Z,5.50
2018-05-27T01:25:33.261Z,6.00
2018-05-27T01:26:33.761Z,6.10
2018-05-27T01:27:34.767Z,5.60
2018-05-27T01:28:33.760Z,5.70
2018-05-27T01:29:33.763Z,5.90
2018-05-27T01:32:05.536Z,6.00
2018-05-27T01:33:04.883Z,6.20
2018-05-27T01:34:05.542Z,5.80
2018-05-27T01:35:27.041Z,5.70
2018-05-27T01:36:06.041Z,5.90
2018-05-27T01:37:06.042Z,5.60
2018-05-27T01:38:06.042Z,5.50
2018-05-27T01:39:06.542Z,5.90
2018-05-27T01:40:06.542Z,5.70
2018-05-27T01:41:06.542Z,5.50
2018-05-27T01:42:06.542Z,5.80
2018-05-27T01:43:09.040Z,6.10
2018-05-27T01:44:07.040Z,6.00
2018-05-27T01:45:07.046Z,5.90
2018-05-27T01:46:07.051Z,6.00
2018-05-27T01:47:28.541Z,5.50
2018-05-27T01:48:07.541Z,5.40
2018-05-27T01:49:28.541Z,5.70
2018-05-27T01:50:08.538Z,6.20
2018-05-27T01:51:10.042Z,5.80
2018-05-27T01:52:10.042Z,6.00
2018-05-27T01:53:08.042Z,5.80
2018-05-27T01:54:08.042Z,5.50
2018-05-27T01:55:08.549Z,5.70
2018-05-27T01:56:08.542Z,5.70
2018-05-27T01:57:08.540Z,5.60
2018-05-27T01:58:08.543Z,5.70
2018-05-27T01:59:09.055Z,5.30
2018-05-27T02:01:39.699Z,5.50
2018-05-27T02:02:40.445Z,5.60
2018-05-27T02:03:40.480Z,5.80
2018-05-27T02:04:40.935Z,6.20
2018-05-27T02:05:40.965Z,5.90
2018-05-27T02:06:40.938Z,5.90
2018-05-27T02:07:40.935Z,5.70
2018-05-27T02:08:41.434Z,5.70
2018-05-27T02:09:40.663Z,5.80
2018-05-27T02:10:43.435Z,5.80
2018-05-27T02:11:41.436Z,6.00
2018-05-27T02:13:03.035Z,6.10
2018-05-27T02:13:41.934Z,5.70
2018-05-27T02:14:41.936Z,5.80
2018-05-27T02:15:41.935Z,5.50
2018-05-27T02:17:03.936Z,6.30
2018-05-27T02:17:42.435Z,5.70
2018-05-27T02:18:43.366Z,5.60
2018-05-27T02:19:42.434Z,5.70
2018-05-27T02:20:42.973Z,5.90
2018-05-27T02:23:16.350Z,6.20
2018-05-27T02:24:14.357Z,5.40
2018-05-27T02:25:14.362Z,5.40
2018-05-27T02:26:16.864Z,5.10
2018-05-27T02:28:46.268Z,5.90
2018-05-27T02:29:46.271Z,6.20
2018-05-27T02:30:46.276Z,5.90
2018-05-27T02:32:07.772Z,5.70
2018-05-27T02:32:46.021Z,6.00
2018-05-27T02:33:46.774Z,5.70
2018-05-27T02:34:46.780Z,5.40
2018-05-27T02:36:08.273Z,6.00
2018-05-27T02:36:47.279Z,5.70
2018-05-27T02:37:49.278Z,5.80
2018-05-27T02:38:47.278Z,5.90
2018-05-27T02:39:47.774Z,5.80
2018-05-27T02:40:47.772Z,5.70
2018-05-27T02:41:47.773Z,5.90
2018-05-27T02:42:47.778Z,5.50
2018-05-27T02:43:48.307Z,5.70
2018-05-27T02:44:48.269Z,5.90
2018-05-27T02:45:48.275Z,5.70
2018-05-27T02:46:48.272Z,5.40
2018-05-27T02:47:48.772Z,6.10
2018-05-27T02:48:48.772Z,6.00
2018-05-27T02:49:48.776Z,6.10
2018-05-27T02:50:48.776Z,5.90
2018-05-27T02:51:49.273Z,5.70
2018-05-27T02:52:49.272Z,6.20
2018-05-27T02:53:49.272Z,5.80
2018-05-27T02:54:49.332Z,5.80
2018-05-27T02:55:49.783Z,6.40
2018-05-27T02:57:10.772Z,6.10
2018-05-27T02:57:49.772Z,5.70
2018-05-27T02:58:49.773Z,5.70
2018-05-27T02:59:49.771Z,5.80
2018-05-27T03:00:50.280Z,6.00
2018-05-27T03:01:50.279Z,6.20
2018-05-27T03:02:50.285Z,5.80
2018-05-27T03:03:50.273Z,5.70
2018-05-27T03:04:52.773Z,6.00
2018-05-27T03:05:50.773Z,5.90
2018-05-27T03:06:50.772Z,6.20
2018-05-27T03:07:50.772Z,5.40
2018-05-27T03:08:51.275Z,5.40
2018-05-27T03:09:51.270Z,5.50
2018-05-27T03:10:51.279Z,5.70
2018-05-27T03:11:51.289Z,5.50
2018-05-27T03:12:51.771Z,5.80
2018-05-27T03:13:51.772Z,6.30
2018-05-27T03:14:51.779Z,5.90
2018-05-27T03:15:51.772Z,6.20
2018-05-27T03:16:52.271Z,5.90
2018-05-27T03:17:52.272Z,5.70
2018-05-27T03:18:52.271Z,6.10
2018-05-27T03:19:51.749Z,6.30
2018-05-27T03:20:52.776Z,5.30
2018-05-27T03:21:52.777Z,5.90
2018-05-27T03:22:52.771Z,5.70
2018-05-27T03:23:52.772Z,5.80
2018-05-27T03:24:53.271Z,6.10
2018-05-27T03:25:53.271Z,6.00
2018-05-27T03:26:53.271Z,5.80
2018-05-27T03:27:52.745Z,6.00
2018-05-27T03:29:16.203Z,6.20
2018-05-27T03:29:53.776Z,6.10
2018-05-27T03:30:58.703Z,6.30
2018-05-27T03:31:53.777Z,6.00
2018-05-27T03:32:54.272Z,6.10
2018-05-27T03:33:54.271Z,5.40
2018-05-27T03:34:53.648Z,5.20
2018-05-27T03:36:16.269Z,5.70
2018-05-27T03:36:53.879Z,5.90
2018-05-27T03:37:53.978Z,5.60
2018-05-27T03:38:54.770Z,5.90
2018-05-27T03:39:54.771Z,6.10
2018-05-27T03:40:54.258Z,5.60
2018-05-27T03:43:26.493Z,5.70
2018-05-27T03:44:26.500Z,6.20
2018-05-27T03:45:26.501Z,5.80
2018-05-27T03:46:26.964Z,5.60
2018-05-27T03:47:27.000Z,5.60
2018-05-27T03:48:28.004Z,5.70
2018-05-27T03:49:27.000Z,5.80
2018-05-27T03:50:27.497Z,5.60
2018-05-27T03:51:27.530Z,6.20
2018-05-27T03:52:27.507Z,5.60
2018-05-27T03:53:27.502Z,5.90
2018-05-27T03:54:28.000Z,5.60
2018-05-27T03:55:28.009Z,5.50
2018-05-27T03:56:29.432Z,5.70
2018-05-27T03:57:28.001Z,6.00
2018-05-27T03:58:49.537Z,6.00
2018-05-27T03:59:28.500Z,5.70
2018-05-27T04:00:49.505Z,6.00
2018-05-27T04:01:29.011Z,6.20
2018-05-27T04:02:29.000Z,6.30
2018-05-27T04:03:29.006Z,5.40
2018-05-27T04:04:29.060Z,5.60
2018-05-27T04:05:29.000Z,5.70
2018-05-27T04:06:29.009Z,6.00
2018-05-27T04:07:29.506Z,6.10
2018-05-27T04:08:29.500Z,6.30
2018-05-27T04:09:29.500Z,6.20
2018-05-27T04:10:29.532Z,5.90
2018-05-27T04:11:30.003Z,5.50
2018-05-27T04:12:30.018Z,5.80
2018-05-27T04:13:30.999Z,6.10
2018-05-27T04:14:32.000Z,5.20
2018-05-27T04:15:52.498Z,5.50
2018-05-27T04:16:51.508Z,5.90
2018-05-27T04:17:30.499Z,6.10
2018-05-27T04:18:30.500Z,6.00
2018-05-27T04:19:31.001Z,5.80
2018-05-27T04:20:31.000Z,5.70
2018-05-27T04:21:31.000Z,5.60
2018-05-27T04:22:52.998Z,5.80
2018-05-27T04:23:31.499Z,6.10
2018-05-27T04:24:31.503Z,5.40
2018-05-27T04:25:31.500Z,5.70
2018-05-27T04:26:31.507Z,5.50
2018-05-27T04:27:32.000Z,5.70
2018-05-27T04:28:32.045Z,5.70
2018-05-27T04:29:32.001Z,5.70
2018-05-27T04:30:32.000Z,6.00
2018-05-27T04:32:32.003Z,6.10
2018-05-27T04:33:32.000Z,5.50
2018-05-27T04:34:32.006Z,5.50
2018-05-27T04:35:32.499Z,6.20
2018-05-27T04:36:32.528Z,5.30
2018-05-27T04:37:32.506Z,5.60
2018-05-27T04:38:32.499Z,5.30
2018-05-27T04:39:32.999Z,5.70
2018-05-27T04:40:32.999Z,5.70
2018-05-27T04:41:33.026Z,5.50
2018-05-27T04:42:33.998Z,5.80
2018-05-27T04:43:33.505Z,5.30
2018-05-27T04:44:33.499Z,5.70
2018-05-27T04:45:34.431Z,5.80
2018-05-27T04:46:33.499Z,5.70
2018-05-27T04:47:33.999Z,5.30
2018-05-27T04:48:33.998Z,5.90
2018-05-27T04:49:33.999Z,6.00
2018-05-27T04:50:33.998Z,5.60
2018-05-27T04:51:34.496Z,5.80
2018-05-27T04:52:34.498Z,5.50
2018-05-27T04:53:34.501Z,5.60
2018-05-27T04:54:34.505Z,5.60
2018-05-27T04:55:34.999Z,5.40
2018-05-27T04:56:35.001Z,5.50
2018-05-27T04:57:35.002Z,5.60
2018-05-27T04:58:55.979Z,5.50
2018-05-27T04:59:35.498Z,5.20
2018-05-27T05:00:35.495Z,5.80
2018-05-27T05:01:35.498Z,5.60
2018-05-27T05:02:35.471Z,5.60
2018-05-27T05:03:43.939Z,6.20
2018-05-27T05:04:37.932Z,4.90
2018-05-27T05:05:57.498Z,5.50
2018-05-27T05:06:36.500Z,5.10
2018-05-27T05:07:36.510Z,5.30
2018-05-27T05:08:38.473Z,5.50
2018-05-27T05:09:59.001Z,6.00
2018-05-27T05:10:59.998Z,5.30
2018-05-27T05:11:36.998Z,5.60
2018-05-27T05:14:08.761Z,5.50
2018-05-27T05:15:08.783Z,5.70
2018-05-27T05:16:08.763Z,5.70
2018-05-27T05:17:10.735Z,5.50
2018-05-27T05:18:09.269Z,5.20
2018-05-27T05:19:09.268Z,5.60
2018-05-27T05:20:09.271Z,5.70
2018-05-27T05:21:09.777Z,5.60
2018-05-27T05:22:09.022Z,5.30
2018-05-27T05:23:09.091Z,5.40
2018-05-27T05:24:11.769Z,5.20
2018-05-27T05:25:09.791Z,5.60
2018-05-27T05:26:10.267Z,5.20
2018-05-27T05:27:09.511Z,5.60
2018-05-27T05:28:10.272Z,5.60
2018-05-27T05:29:10.268Z,5.10
2018-05-27T05:33:13.455Z,5.60
2018-05-27T05:34:34.462Z,5.70
2018-05-27T05:35:13.463Z,5.20
2018-05-27T05:36:15.975Z,5.20
2018-05-27T05:37:13.963Z,5.40
2018-05-27T05:38:13.964Z,5.40
2018-05-27T05:40:45.624Z,5.40
2018-05-27T05:41:44.979Z,5.10
2018-05-27T05:42:45.631Z,5.40
2018-05-27T05:43:52.562Z,5.00
2018-05-27T05:45:07.130Z,5.40
2018-05-27T05:45:46.132Z,5.70
2018-05-27T05:46:47.070Z,5.60
2018-05-27T05:47:52.635Z,5.80
2018-05-27T05:49:07.630Z,5.40
2018-05-27T05:50:06.856Z,5.70
2018-05-27T05:51:07.638Z,5.90
2018-05-27T05:52:00.675Z,5.70
2018-05-27T05:52:48.604Z,5.60
2018-05-27T05:54:08.130Z,5.50
2018-05-27T05:54:49.065Z,6.00
2018-05-27T05:56:08.130Z,5.80
2018-05-27T05:56:47.630Z,5.50
2018-05-27T05:57:47.629Z,5.30
2018-05-27T05:58:47.630Z,5.50
2018-05-27T05:59:47.636Z,5.50
2018-05-27T06:00:48.130Z,5.60
2018-05-27T06:01:48.130Z,5.40
2018-05-27T06:03:02.129Z,5.40
2018-05-27T06:03:48.130Z,5.40
2018-05-27T06:04:50.637Z,5.60
2018-05-27T06:05:50.098Z,5.80
2018-05-27T06:06:48.631Z,5.50
2018-05-27T06:07:48.630Z,5.60
2018-05-27T06:08:50.100Z,5.40
2018-05-27T06:09:49.137Z,5.40
2018-05-27T06:11:09.471Z,5.40
2018-05-27T06:11:49.130Z,5.40
2018-05-27T06:12:49.632Z,5.70
2018-05-27T06:14:10.631Z,5.70
2018-05-27T06:14:49.627Z,5.70
2018-05-27T06:15:49.631Z,5.60
2018-05-27T06:16:50.129Z,5.40
2018-05-27T06:17:50.131Z,5.10
2018-05-27T06:18:50.130Z,5.80
2018-05-27T06:19:50.130Z,6.00
2018-05-27T06:21:15.098Z,5.90
2018-05-27T06:21:52.062Z,5.70
2018-05-27T06:22:52.630Z,6.30
2018-05-27T06:23:50.630Z,5.50
2018-05-27T06:24:53.139Z,6.30
2018-05-27T06:25:50.365Z,5.50
2018-05-27T06:26:50.471Z,6.10
2018-05-27T06:27:51.134Z,5.40
2018-05-27T06:29:12.630Z,5.70
2018-05-27T06:29:51.639Z,5.40
2018-05-27T06:30:51.641Z,5.60
2018-05-27T06:31:51.630Z,6.10
2018-05-27T06:32:52.130Z,5.10
2018-05-27T06:33:52.130Z,5.60
2018-05-27T06:34:52.130Z,5.50
2018-05-27T06:35:52.135Z,5.20
2018-05-27T06:36:52.628Z,5.40
2018-05-27T06:37:52.637Z,5.10
2018-05-27T06:38:52.632Z,5.60
2018-05-27T06:39:52.116Z,5.40
2018-05-27T06:40:53.131Z,5.20
2018-05-27T06:41:53.131Z,5.40
2018-05-27T06:42:52.492Z,5.10
2018-05-27T06:43:53.131Z,5.20
2018-05-27T06:44:52.736Z,5.10
2018-05-27T06:45:53.628Z,5.40
2018-05-27T06:46:53.636Z,5.00
2018-05-27T06:47:53.105Z,5.80
2018-05-27T06:48:53.208Z,5.40
2018-05-27T06:49:53.319Z,5.90
2018-05-27T06:51:15.172Z,5.50
2018-05-27T06:51:54.131Z,5.80
2018-05-27T06:52:54.143Z,5.90
2018-05-27T06:53:54.631Z,5.90
2018-05-27T06:54:53.863Z,5.80
2018-05-27T06:55:54.631Z,5.90
2018-05-27T06:56:54.634Z,6.00
2018-05-27T06:57:56.607Z,5.80
2018-05-27T06:58:56.598Z,5.80
2018-05-27T06:59:55.136Z,5.40
2018-05-27T07:00:54.609Z,6.10
2018-05-27T07:01:54.729Z,6.10
2018-05-27T07:02:57.093Z,6.70
2018-05-27T07:03:55.634Z,6.30
2018-05-27T07:04:55.670Z,6.10
2018-05-27T07:06:17.126Z,6.10
2018-05-27T07:06:58.131Z,6.10
2018-05-27T07:07:56.129Z,6.50
2018-05-27T07:09:17.132Z,5.50
2018-05-27T07:09:56.631Z,6.00
2018-05-27T07:11:17.645Z,5.70
2018-05-27T07:12:10.632Z,6.20
2018-05-27T07:12:56.632Z,5.60
2018-05-27T07:14:18.132Z,6.00
2018-05-27T07:14:57.132Z,6.20
2018-05-27T07:15:57.134Z,6.30
2018-05-27T07:16:57.131Z,5.90
2018-05-27T07:18:18.639Z,5.90
2018-05-27T07:18:59.610Z,5.60
2018-05-27T07:19:56.964Z,5.90
2018-05-27T07:20:57.633Z,5.60
2018-05-27T07:21:58.175Z,5.60
2018-05-27T07:22:59.586Z,5.70
2018-05-27T07:23:58.132Z,6.00
2018-05-27T07:24:58.132Z,5.70
2018-05-27T07:27:29.893Z,5.30
2018-05-27T07:28:50.903Z,5.30
2018-05-27T07:29:29.900Z,5.30
2018-05-27T07:30:30.399Z,5.60
2018-05-27T07:31:30.410Z,5.50
2018-05-27T07:32:30.401Z,5.70
2018-05-27T07:33:30.400Z,5.80
2018-05-27T07:34:30.938Z,5.40
2018-05-27T07:35:31.905Z,5.80
2018-05-27T07:36:30.901Z,6.00
2018-05-27T07:37:30.901Z,5.30
2018-05-27T07:38:32.365Z,5.20
2018-05-27T07:39:31.401Z,5.40
2018-05-27T07:40:31.401Z,5.80
2018-05-27T07:41:31.400Z,5.70
2018-05-27T07:42:31.899Z,5.50
2018-05-27T07:43:31.900Z,5.40
2018-05-27T07:44:31.900Z,5.70
2018-05-27T07:45:31.912Z,5.60
2018-05-27T07:46:32.401Z,5.40
2018-05-27T07:47:32.400Z,5.80
2018-05-27T07:48:32.403Z,5.30
2018-05-27T07:49:32.401Z,5.50
2018-05-27T07:50:32.903Z,6.00
2018-05-27T07:51:33.900Z,5.80
2018-05-27T07:52:32.925Z,6.10
2018-05-27T07:53:32.902Z,5.90
2018-05-27T07:54:53.488Z,6.20
2018-05-27T07:55:34.402Z,6.10
2018-05-27T07:56:54.412Z,5.60
2018-05-27T07:57:33.402Z,6.10
2018-05-27T07:58:54.900Z,6.20
2018-05-27T07:59:54.122Z,6.30
2018-05-27T08:00:33.901Z,6.20
2018-05-27T08:01:33.901Z,5.40
2018-05-27T08:02:34.401Z,5.50
2018-05-27T08:05:27.814Z,5.80
2018-05-27T08:06:05.847Z,5.50
2018-05-27T08:07:05.901Z,6.20
2018-05-27T08:08:05.451Z,6.10
2018-05-27T08:09:28.353Z,6.20
2018-05-27T08:10:05.726Z,6.10
2018-05-27T08:11:27.347Z,5.60
2018-05-27T08:12:27.885Z,5.60
2018-05-27T08:13:27.929Z,5.40
2018-05-27T08:14:06.851Z,5.70
2018-05-27T08:15:27.852Z,5.50
2018-05-27T08:16:27.430Z,5.60
2018-05-27T08:17:28.347Z,5.70
2018-05-27T08:18:28.349Z,6.00
2018-05-27T08:19:07.347Z,5.70
2018-05-27T08:20:28.849Z,5.70
2018-05-27T08:21:07.847Z,5.90
2018-05-27T08:24:00.411Z,5.70
2018-05-27T08:24:53.380Z,6.20
2018-05-27T08:26:00.384Z,6.00
2018-05-27T08:27:00.879Z,6.00
2018-05-27T08:28:00.880Z,5.80
2018-05-27T08:28:39.888Z,5.70
2018-05-27T08:29:39.880Z,6.00
2018-05-27T08:30:40.380Z,5.80
2018-05-27T08:31:41.311Z,6.10
2018-05-27T08:33:02.383Z,6.10
2018-05-27T08:33:40.380Z,5.60
2018-05-27T08:34:40.888Z,6.00
2018-05-27T08:37:12.273Z,6.00
2018-05-27T08:38:12.280Z,5.70
2018-05-27T08:39:12.280Z,6.50
2018-05-27T08:40:33.780Z,6.20
2018-05-27T08:41:12.779Z,5.70
2018-05-27T08:42:12.791Z,6.10
2018-05-27T08:43:12.780Z,6.00
2018-05-27T08:44:13.283Z,5.70
2018-05-27T08:45:13.289Z,6.00
2018-05-27T08:46:13.287Z,5.90
2018-05-27T08:47:13.283Z,6.20
2018-05-27T08:49:45.082Z,5.30
2018-05-27T08:50:45.090Z,5.60
2018-05-27T08:52:06.090Z,5.70
2018-05-27T08:52:45.594Z,6.40
2018-05-27T08:53:45.596Z,6.00
2018-05-27T08:54:45.590Z,5.70
2018-05-27T08:56:06.590Z,5.50
2018-05-27T08:56:46.090Z,5.60
2018-05-27T08:57:46.091Z,5.40
2018-05-27T08:58:45.453Z,5.60
2018-05-27T08:59:46.090Z,5.90
2018-05-27T09:00:47.556Z,5.80
2018-05-27T09:01:45.791Z,5.50
2018-05-27T09:02:46.593Z,5.80
2018-05-27T09:04:07.591Z,5.40
2018-05-27T09:04:53.091Z,5.50
2018-05-27T09:06:08.091Z,5.20
2018-05-27T09:07:08.103Z,5.40
2018-05-27T09:07:47.099Z,5.40
2018-05-27T09:08:47.083Z,5.40
2018-05-27T09:09:48.536Z,5.90
2018-05-27T09:12:19.941Z,5.40
2018-05-27T09:13:18.970Z,5.80
2018-05-27T09:14:18.972Z,6.00
2018-05-27T09:15:19.505Z,5.60
2018-05-27T09:16:18.727Z,5.30
2018-05-27T09:17:19.469Z,5.10
2018-05-27T09:18:19.470Z,5.60
2018-05-27T09:19:19.978Z,5.40
2018-05-27T09:20:19.971Z,5.20
2018-05-27T09:21:20.968Z,5.70
2018-05-27T09:22:20.472Z,5.30
2018-05-27T09:23:20.470Z,5.30
2018-05-27T09:24:41.471Z,5.50
2018-05-27T09:25:20.472Z,4.90
2018-05-27T09:26:20.474Z,5.40
2018-05-27T09:27:20.970Z,5.30
2018-05-27T09:28:20.970Z,5.30
2018-05-27T09:29:20.972Z,5.40
2018-05-27T09:30:20.981Z,5.20
2018-05-27T09:32:52.745Z,5.70
2018-05-27T09:33:52.753Z,5.50
2018-05-27T09:34:52.753Z,5.10
2018-05-27T09:35:53.252Z,5.20
2018-05-27T09:36:53.253Z,5.30
2018-05-27T09:37:52.610Z,4.90
2018-05-27T09:38:53.253Z,5.60
2018-05-27T09:39:52.892Z,5.50
2018-05-27T09:40:53.754Z,5.40
2018-05-27T09:41:53.760Z,5.80
2018-05-27T09:42:53.230Z,5.20
2018-05-27T09:43:54.255Z,5.30
2018-05-27T09:44:53.495Z,5.50
2018-05-27T09:45:54.267Z,5.90
2018-05-27T09:46:54.254Z,5.70
2018-05-27T09:47:53.873Z,5.20
2018-05-27T09:48:54.758Z,5.60
2018-05-27T09:49:54.748Z,5.60
2018-05-27T09:50:57.259Z,5.50
2018-05-27T09:51:55.269Z,5.50
2018-05-27T09:52:56.708Z,5.20
2018-05-27T09:53:56.686Z,5.00
2018-05-27T09:54:55.254Z,5.00
2018-05-27T09:55:55.755Z,5.10
2018-05-27T09:57:16.755Z,4.90
2018-05-27T09:57:55.805Z,5.10
2018-05-27T09:58:55.755Z,5.20
2018-05-27T10:01:27.544Z,5.40
2018-05-27T10:02:27.543Z,5.30
2018-05-27T10:03:27.542Z,5.00
2018-05-27T10:04:27.148Z,5.20
2018-05-27T10:05:49.043Z,5.10
2018-05-27T10:06:28.044Z,4.90
2018-05-27T10:07:28.037Z,4.80
2018-05-27T10:08:28.542Z,4.70
2018-05-27T10:09:28.542Z,5.00
2018-05-27T10:10:28.542Z,4.90
2018-05-27T10:11:28.543Z,5.40
2018-05-27T10:12:50.103Z,5.30
2018-05-27T10:13:29.042Z,5.30
2018-05-27T10:14:29.043Z,5.10
2018-05-27T10:15:29.045Z,6.50
2018-05-27T10:16:29.542Z,5.50
2018-05-27T10:17:29.541Z,4.90
2018-05-27T10:18:29.549Z,4.80
2018-05-27T10:19:29.543Z,5.50
2018-05-27T10:20:30.043Z,5.40
2018-05-27T10:21:30.047Z,5.90
2018-05-27T10:22:30.053Z,5.20
2018-05-27T10:23:30.043Z,5.60
2018-05-27T10:24:51.546Z,5.00
2018-05-27T10:25:30.543Z,5.10
2018-05-27T10:26:29.900Z,5.60
2018-05-27T10:27:30.543Z,4.80
2018-05-27T10:28:31.044Z,5.50
2018-05-27T10:29:31.044Z,5.20
2018-05-27T10:30:31.043Z,5.30
2018-05-27T10:31:31.046Z,5.30
2018-05-27T10:32:31.545Z,6.10
2018-05-27T10:33:31.544Z,6.00
2018-05-27T10:34:31.544Z,5.90
2018-05-27T10:35:31.543Z,5.90
2018-05-27T10:36:32.044Z,5.60
2018-05-27T10:37:32.044Z,6.10
2018-05-27T10:38:32.047Z,6.10
2018-05-27T10:39:32.045Z,5.80
2018-05-27T10:40:53.544Z,6.10
2018-05-27T10:41:32.545Z,5.60
2018-05-27T10:42:32.554Z,5.80
2018-05-27T10:43:32.544Z,5.70
2018-05-27T10:44:33.045Z,5.70
2018-05-27T10:45:54.045Z,5.80
2018-05-27T10:46:33.076Z,5.90
2018-05-27T10:47:33.046Z,5.70
2018-05-27T10:48:33.551Z,5.60
2018-05-27T10:49:33.545Z,5.80
2018-05-27T10:50:33.545Z,5.90
2018-05-27T10:51:54.032Z,5.60
2018-05-27T10:52:54.129Z,5.50
2018-05-27T10:53:58.988Z,5.50
2018-05-27T10:54:34.051Z,5.30
2018-05-27T10:55:34.050Z,5.40
2018-05-27T10:56:55.545Z,5.50
2018-05-27T10:57:54.762Z,5.40
2018-05-27T10:58:35.979Z,5.50
2018-05-27T10:59:55.594Z,5.50
2018-05-27T11:02:06.318Z,5.80
2018-05-27T11:04:38.794Z,5.20
2018-05-27T11:05:37.899Z,5.10
2018-05-27T11:06:37.860Z,5.10
2018-05-27T11:07:38.363Z,5.20
2018-05-27T11:10:09.344Z,5.70
2018-05-27T11:12:41.618Z,5.60
2018-05-27T11:13:41.631Z,5.20
2018-05-27T11:14:41.633Z,5.40
2018-05-27T11:15:43.581Z,5.30
2018-05-27T11:16:42.132Z,5.60
2018-05-27T11:17:42.125Z,5.20
2018-05-27T11:19:03.181Z,4.80
2018-05-27T11:21:13.825Z,4.90
2018-05-27T11:22:13.834Z,5.40
2018-05-27T11:23:13.323Z,5.20
2018-05-27T11:24:35.332Z,4.90
2018-05-27T11:25:14.332Z,5.40
2018-05-27T11:26:14.335Z,5.10
2018-05-27T11:27:14.346Z,4.90
2018-05-27T11:28:16.850Z,5.20
2018-05-27T11:29:14.830Z,5.40
2018-05-27T11:30:14.832Z,5.00
2018-05-27T11:31:14.842Z,5.20
2018-05-27T11:32:36.332Z,5.10
2018-05-27T11:33:15.343Z,4.90
2018-05-27T11:34:36.341Z,5.10
2018-05-27T11:35:15.332Z,5.10
2018-05-27T11:36:15.845Z,5.00
2018-05-27T11:37:18.265Z,4.90
2018-05-27T11:38:15.833Z,5.20
2018-05-27T11:39:15.834Z,4.90
2018-05-27T11:40:16.333Z,4.70
2018-05-27T11:41:37.340Z,4.70
2018-05-27T11:42:16.339Z,4.80
2018-05-27T11:43:16.337Z,5.00
2018-05-27T11:44:19.766Z,5.10
2018-05-27T11:45:37.833Z,4.70
2018-05-27T11:46:16.189Z,4.90
2018-05-27T11:47:37.834Z,4.80
2018-05-27T11:49:48.605Z,4.90
2018-05-27T11:50:48.615Z,5.00
2018-05-27T11:52:09.617Z,5.00
2018-05-27T11:52:49.113Z,5.10
2018-05-27T11:53:49.112Z,5.00
2018-05-27T11:54:49.113Z,4.70
2018-05-27T11:55:49.112Z,5.20
2018-05-27T11:56:49.611Z,4.50
2018-05-27T11:57:49.614Z,4.30
2018-05-27T11:58:48.972Z,4.30
2018-05-27T11:59:49.614Z,4.50
2018-05-27T12:00:50.115Z,4.30
2018-05-27T12:01:50.116Z,4.30
2018-05-27T12:02:50.121Z,4.70
2018-05-27T12:03:50.116Z,4.70
2018-05-27T12:04:50.667Z,5.00
2018-05-27T12:05:50.611Z,4.90
2018-05-27T12:06:51.113Z,5.10
2018-05-27T12:07:51.115Z,4.90
2018-05-27T12:08:51.114Z,5.10
2018-05-27T12:09:51.115Z,4.70
2018-05-27T12:10:51.114Z,4.30
2018-05-27T12:11:51.115Z,4.60
2018-05-27T12:12:51.614Z,4.90
2018-05-27T12:13:52.547Z,4.50
2018-05-27T12:14:51.615Z,4.50
2018-05-27T12:15:51.617Z,4.60
2018-05-27T12:16:52.115Z,4.80
2018-05-27T12:17:52.113Z,5.00
2018-05-27T12:18:52.130Z,4.70
2018-05-27T12:20:13.615Z,4.60
2018-05-27T12:20:52.615Z,4.40
2018-05-27T12:21:52.617Z,5.10
2018-05-27T12:22:52.627Z,4.00
2018-05-27T12:23:52.615Z,4.50
2018-05-27T12:24:53.115Z,4.10
2018-05-27T12:26:14.115Z,4.30
2018-05-27T12:26:53.118Z,4.50
2018-05-27T12:27:52.604Z,4.40
2018-05-27T12:29:13.696Z,4.50
2018-05-27T12:30:07.622Z,4.40
2018-05-27T12:30:53.617Z,4.40
2018-05-27T12:31:53.102Z,4.50
2018-05-27T12:32:53.211Z,4.30
2018-05-27T12:35:25.486Z,5.10
2018-05-27T12:36:25.541Z,4.50
2018-05-27T12:37:27.481Z,4.60
2018-05-27T12:38:25.995Z,4.50
2018-05-27T12:39:25.993Z,4.40
2018-05-27T12:40:29.927Z,4.60
2018-05-27T12:41:25.993Z,4.30
2018-05-27T12:43:57.787Z,4.60
2018-05-27T12:44:57.799Z,4.30
2018-05-27T12:45:57.803Z,4.50
2018-05-27T12:46:58.294Z,4.60
2018-05-27T12:48:05.260Z,4.20
2018-05-27T12:48:58.327Z,4.00
2018-05-27T12:49:58.296Z,4.20
2018-05-27T12:50:58.322Z,4.00
2018-05-27T12:52:25.807Z,4.20
2018-05-27T12:52:58.795Z,4.30
2018-05-27T12:53:58.795Z,4.20
2018-05-27T12:54:58.794Z,4.40
2018-05-27T12:56:20.308Z,4.80
2018-05-27T12:56:59.351Z,4.30
2018-05-27T12:58:05.299Z,4.20
2018-05-27T12:58:59.296Z,4.30
2018-05-27T13:00:22.796Z,4.20
2018-05-27T13:00:59.794Z,4.10
2018-05-27T13:01:59.801Z,4.10
2018-05-27T13:02:59.300Z,4.30
2018-05-27T13:04:00.296Z,4.20
2018-05-27T13:05:00.296Z,4.30
2018-05-27T13:06:00.341Z,3.90
2018-05-27T13:07:02.728Z,3.80
2018-05-27T13:08:24.313Z,4.30
2018-05-27T13:09:21.795Z,4.40
2018-05-27T13:10:00.799Z,4.70
2018-05-27T13:11:14.801Z,4.40
2018-05-27T13:13:32.586Z,4.30
2018-05-27T13:14:32.589Z,4.20
2018-05-27T13:15:32.590Z,4.20
2018-05-27T13:16:33.223Z,4.50
2018-05-27T13:17:33.086Z,4.00
2018-05-27T13:18:33.092Z,4.60
2018-05-27T13:19:33.590Z,3.90
2018-05-27T13:20:54.588Z,4.50
2018-05-27T13:21:33.590Z,4.10
2018-05-27T13:22:33.604Z,4.60
2018-05-27T13:23:33.590Z,4.40
2018-05-27T13:24:34.090Z,4.20
2018-05-27T13:25:55.090Z,4.30
2018-05-27T13:26:33.454Z,4.00
2018-05-27T13:27:34.091Z,4.00
2018-05-27T13:28:34.601Z,4.30
2018-05-27T13:29:35.562Z,4.70
2018-05-27T13:30:34.590Z,4.40
2018-05-27T13:31:34.589Z,4.30
2018-05-27T13:32:35.102Z,4.50
2018-05-27T13:33:58.523Z,4.40
2018-05-27T13:34:56.091Z,4.70
2018-05-27T13:35:35.091Z,4.00
2018-05-27T13:36:56.594Z,4.70
2018-05-27T13:37:35.591Z,4.40
2018-05-27T13:38:35.591Z,4.20
2018-05-27T13:39:35.593Z,4.70
2018-05-27T13:40:36.100Z,4.60
2018-05-27T13:41:36.091Z,4.20
2018-05-27T13:43:03.091Z,4.40
2018-05-27T13:43:36.098Z,4.40
2018-05-27T13:44:57.612Z,4.60
2018-05-27T13:47:29.001Z,4.30
2018-05-27T13:48:08.057Z,4.70
2018-05-27T13:49:29.508Z,4.60
2018-05-27T13:50:08.510Z,5.00
2018-05-27T13:51:08.509Z,5.00
2018-05-27T13:52:08.515Z,4.90
2018-05-27T13:53:09.016Z,4.80
2018-05-27T13:54:30.011Z,4.60
2018-05-27T13:55:09.052Z,5.10
2018-05-27T13:56:09.013Z,4.80
2018-05-27T13:57:09.011Z,4.50
2018-05-27T13:58:09.515Z,5.00
2018-05-27T13:59:09.507Z,4.40
2018-05-27T14:00:09.518Z,5.20
2018-05-27T14:01:09.512Z,4.70
2018-05-27T14:02:10.024Z,5.00
2018-05-27T14:03:09.258Z,5.10